Aalst, Belgium
Current Conditions -  °F | °C
As of 5:20 AM on Friday 28 Nov 2014 (Local Time) from EBBR Reporting Station
Few Clouds Few Clouds  
Wind Chill: 41°   Ceiling: Unl
Heat Index: 45°   Visibility: 5mi
Dew Point: 43°   Wind: 6mph
Humidity: 93%   Direction: 100°E
Pressure: 29.65"   Gusts: NA
Location:  50.94°N, 4.04°E
Report Text: EBBR 280420Z 10005KT 8000 FEW048 07/06 Q1004 NOSIG
Loading
Personal Weather Stations






























Interactive Weather Map New forecast layout! Learn more

10-Day Weather Forecast

Advertisements
Track Severe Weather on mobile